sensor_id;sensor_type;location;lat;lon;timestamp;P1;durP1;ratioP1;P2;durP2;ratioP2
11238;SDS011;5677;48.488;13.436;2023-04-06T00:02:16;1.30;;;1.20;;
11238;SDS011;5677;48.488;13.436;2023-04-06T00:04:43;1.90;;;1.40;;
11238;SDS011;5677;48.488;13.436;2023-04-06T00:07:10;3.20;;;1.50;;
11238;SDS011;5677;48.488;13.436;2023-04-06T00:09:37;1.97;;;1.30;;
11238;SDS011;5677;48.488;13.436;2023-04-06T00:12:03;2.93;;;1.50;;
11238;SDS011;5677;48.488;13.436;2023-04-06T00:14:30;1.60;;;1.47;;
11238;SDS011;5677;48.488;13.436;2023-04-06T00:16:58;4.77;;;1.50;;
11238;SDS011;5677;48.488;13.436;2023-04-06T00:19:25;1.80;;;1.23;;
11238;SDS011;5677;48.488;13.436;2023-04-06T00:21:52;2.13;;;1.40;;
11238;SDS011;5677;48.488;13.436;2023-04-06T00:24:18;2.50;;;1.60;;
11238;SDS011;5677;48.488;13.436;2023-04-06T00:26:45;1.97;;;1.33;;
11238;SDS011;5677;48.488;13.436;2023-04-06T00:29:12;2.93;;;1.60;;
11238;SDS011;5677;48.488;13.436;2023-04-06T00:31:40;2.03;;;1.20;;
11238;SDS011;5677;48.488;13.436;2023-04-06T00:34:08;2.30;;;1.47;;
11238;SDS011;5677;48.488;13.436;2023-04-06T00:36:35;1.50;;;1.40;;
11238;SDS011;5677;48.488;13.436;2023-04-06T00:39:02;2.03;;;1.40;;
11238;SDS011;5677;48.488;13.436;2023-04-06T00:41:29;1.77;;;1.37;;
11238;SDS011;5677;48.488;13.436;2023-04-06T00:43:56;2.87;;;1.57;;
11238;SDS011;5677;48.488;13.436;2023-04-06T00:46:22;1.60;;;1.50;;
11238;SDS011;5677;48.488;13.436;2023-04-06T00:48:49;2.30;;;1.50;;
11238;SDS011;5677;48.488;13.436;2023-04-06T00:51:18;2.10;;;1.47;;
11238;SDS011;5677;48.488;13.436;2023-04-06T00:53:44;1.57;;;1.33;;
11238;SDS011;5677;48.488;13.436;2023-04-06T00:56:11;1.60;;;1.50;;
11238;SDS011;5677;48.488;13.436;2023-04-06T00:58:38;2.47;;;1.70;;
11238;SDS011;5677;48.488;13.436;2023-04-06T01:01:05;1.70;;;1.40;;
11238;SDS011;5677;48.488;13.436;2023-04-06T01:03:32;1.30;;;1.20;;
11238;SDS011;5677;48.488;13.436;2023-04-06T01:05:59;2.27;;;1.70;;
11238;SDS011;5677;48.488;13.436;2023-04-06T01:08:27;1.50;;;1.40;;
11238;SDS011;5677;48.488;13.436;2023-04-06T01:10:54;2.00;;;1.50;;
11238;SDS011;5677;48.488;13.436;2023-04-06T01:13:21;1.67;;;1.50;;
11238;SDS011;5677;48.488;13.436;2023-04-06T01:15:47;1.70;;;1.30;;
11238;SDS011;5677;48.488;13.436;2023-04-06T01:18:15;1.70;;;1.30;;
11238;SDS011;5677;48.488;13.436;2023-04-06T01:20:41;1.90;;;1.47;;
11238;SDS011;5677;48.488;13.436;2023-04-06T01:23:10;1.30;;;1.20;;
11238;SDS011;5677;48.488;13.436;2023-04-06T01:25:36;1.83;;;1.43;;
11238;SDS011;5677;48.488;13.436;2023-04-06T01:28:03;1.90;;;1.53;;
11238;SDS011;5677;48.488;13.436;2023-04-06T01:30:30;2.47;;;1.30;;
11238;SDS011;5677;48.488;13.436;2023-04-06T01:32:57;1.47;;;1.20;;
11238;SDS011;5677;48.488;13.436;2023-04-06T01:35:25;1.30;;;1.20;;
11238;SDS011;5677;48.488;13.436;2023-04-06T01:37:52;1.57;;;1.30;;
11238;SDS011;5677;48.488;13.436;2023-04-06T01:40:20;1.93;;;1.57;;
11238;SDS011;5677;48.488;13.436;2023-04-06T01:42:47;1.80;;;1.40;;
11238;SDS011;5677;48.488;13.436;2023-04-06T01:45:14;2.00;;;1.40;;
11238;SDS011;5677;48.488;13.436;2023-04-06T01:47:41;2.37;;;1.03;;
11238;SDS011;5677;48.488;13.436;2023-04-06T01:50:08;1.23;;;1.13;;
11238;SDS011;5677;48.488;13.436;2023-04-06T01:52:35;1.77;;;1.47;;
11238;SDS011;5677;48.488;13.436;2023-04-06T01:55:02;3.10;;;1.50;;
11238;SDS011;5677;48.488;13.436;2023-04-06T01:57:32;1.50;;;1.37;;
11238;SDS011;5677;48.488;13.436;2023-04-06T01:59:59;1.70;;;1.40;;
11238;SDS011;5677;48.488;13.436;2023-04-06T02:02:26;1.80;;;1.40;;
11238;SDS011;5677;48.488;13.436;2023-04-06T02:04:53;1.67;;;1.40;;
11238;SDS011;5677;48.488;13.436;2023-04-06T02:07:20;1.93;;;1.30;;
11238;SDS011;5677;48.488;13.436;2023-04-06T02:09:46;1.90;;;1.60;;
11238;SDS011;5677;48.488;13.436;2023-04-06T02:12:13;1.27;;;1.17;;
11238;SDS011;5677;48.488;13.436;2023-04-06T02:14:41;1.40;;;1.30;;
11238;SDS011;5677;48.488;13.436;2023-04-06T02:17:08;1.77;;;1.50;;
11238;SDS011;5677;48.488;13.436;2023-04-06T02:19:35;2.07;;;1.40;;
11238;SDS011;5677;48.488;13.436;2023-04-06T02:22:02;1.87;;;1.60;;
11238;SDS011;5677;48.488;13.436;2023-04-06T02:24:28;1.40;;;1.30;;
11238;SDS011;5677;48.488;13.436;2023-04-06T02:26:55;3.20;;;1.40;;
11238;SDS011;5677;48.488;13.436;2023-04-06T02:29:22;2.27;;;1.50;;
11238;SDS011;5677;48.488;13.436;2023-04-06T02:31:50;1.60;;;1.50;;
11238;SDS011;5677;48.488;13.436;2023-04-06T02:34:17;1.20;;;1.10;;
11238;SDS011;5677;48.488;13.436;2023-04-06T02:36:44;1.87;;;1.40;;
11238;SDS011;5677;48.488;13.436;2023-04-06T02:39:11;1.47;;;1.30;;
11238;SDS011;5677;48.488;13.436;2023-04-06T02:41:38;1.53;;;1.43;;
11238;SDS011;5677;48.488;13.436;2023-04-06T02:44:06;1.90;;;1.27;;
11238;SDS011;5677;48.488;13.436;2023-04-06T02:46:34;1.73;;;1.60;;
11238;SDS011;5677;48.488;13.436;2023-04-06T02:49:02;2.13;;;1.30;;
11238;SDS011;5677;48.488;13.436;2023-04-06T02:51:29;2.00;;;1.20;;
11238;SDS011;5677;48.488;13.436;2023-04-06T02:53:56;1.43;;;1.27;;
11238;SDS011;5677;48.488;13.436;2023-04-06T02:56:22;1.70;;;1.50;;
11238;SDS011;5677;48.488;13.436;2023-04-06T02:58:49;1.53;;;1.30;;
11238;SDS011;5677;48.488;13.436;2023-04-06T03:01:16;2.40;;;1.50;;
11238;SDS011;5677;48.488;13.436;2023-04-06T03:03:43;2.17;;;1.40;;
11238;SDS011;5677;48.488;13.436;2023-04-06T03:06:11;1.90;;;1.37;;
11238;SDS011;5677;48.488;13.436;2023-04-06T03:08:37;1.50;;;1.40;;
11238;SDS011;5677;48.488;13.436;2023-04-06T03:11:04;1.60;;;1.50;;
11238;SDS011;5677;48.488;13.436;2023-04-06T03:13:31;2.80;;;1.40;;
11238;SDS011;5677;48.488;13.436;2023-04-06T03:15:58;1.50;;;1.40;;
11238;SDS011;5677;48.488;13.436;2023-04-06T03:18:25;2.37;;;1.77;;
11238;SDS011;5677;48.488;13.436;2023-04-06T03:20:51;1.83;;;1.30;;
11238;SDS011;5677;48.488;13.436;2023-04-06T03:23:21;2.00;;;1.40;;
11238;SDS011;5677;48.488;13.436;2023-04-06T03:25:48;1.50;;;1.27;;
11238;SDS011;5677;48.488;13.436;2023-04-06T03:28:15;1.53;;;1.40;;
11238;SDS011;5677;48.488;13.436;2023-04-06T03:30:42;2.57;;;1.60;;
11238;SDS011;5677;48.488;13.436;2023-04-06T03:33:08;2.40;;;1.67;;
11238;SDS011;5677;48.488;13.436;2023-04-06T03:35:35;1.50;;;1.40;;
11238;SDS011;5677;48.488;13.436;2023-04-06T03:38:02;1.60;;;1.40;;
11238;SDS011;5677;48.488;13.436;2023-04-06T03:40:30;1.30;;;1.20;;
11238;SDS011;5677;48.488;13.436;2023-04-06T03:42:57;1.30;;;1.20;;
11238;SDS011;5677;48.488;13.436;2023-04-06T03:45:24;1.40;;;1.30;;
11238;SDS011;5677;48.488;13.436;2023-04-06T03:47:50;1.20;;;1.10;;
11238;SDS011;5677;48.488;13.436;2023-04-06T03:50:17;1.30;;;1.20;;
11238;SDS011;5677;48.488;13.436;2023-04-06T03:52:44;1.87;;;1.40;;
11238;SDS011;5677;48.488;13.436;2023-04-06T03:55:11;2.30;;;1.23;;
11238;SDS011;5677;48.488;13.436;2023-04-06T03:57:39;1.57;;;1.47;;
11238;SDS011;5677;48.488;13.436;2023-04-06T04:00:07;1.43;;;1.33;;
11238;SDS011;5677;48.488;13.436;2023-04-06T04:02:34;2.00;;;1.60;;
11238;SDS011;5677;48.488;13.436;2023-04-06T04:05:01;3.27;;;1.40;;
11238;SDS011;5677;48.488;13.436;2023-04-06T04:07:28;2.17;;;1.40;;
11238;SDS011;5677;48.488;13.436;2023-04-06T04:09:55;2.40;;;1.43;;
11238;SDS011;5677;48.488;13.436;2023-04-06T04:12:22;3.63;;;1.70;;
11238;SDS011;5677;48.488;13.436;2023-04-06T04:14:50;1.40;;;1.20;;
11238;SDS011;5677;48.488;13.436;2023-04-06T04:17:17;2.13;;;1.43;;
11238;SDS011;5677;48.488;13.436;2023-04-06T04:19:43;1.97;;;1.57;;
11238;SDS011;5677;48.488;13.436;2023-04-06T04:22:10;1.30;;;1.20;;
11238;SDS011;5677;48.488;13.436;2023-04-06T04:24:37;1.97;;;1.70;;
11238;SDS011;5677;48.488;13.436;2023-04-06T04:27:04;4.63;;;1.40;;
11238;SDS011;5677;48.488;13.436;2023-04-06T04:29:31;1.67;;;1.57;;
11238;SDS011;5677;48.488;13.436;2023-04-06T04:31:59;3.00;;;2.30;;
11238;SDS011;5677;48.488;13.436;2023-04-06T04:34:25;3.13;;;2.27;;
11238;SDS011;5677;48.488;13.436;2023-04-06T04:36:52;4.50;;;2.70;;
11238;SDS011;5677;48.488;13.436;2023-04-06T04:39:19;2.37;;;2.07;;
11238;SDS011;5677;48.488;13.436;2023-04-06T04:41:46;2.27;;;1.97;;
11238;SDS011;5677;48.488;13.436;2023-04-06T04:44:13;2.77;;;1.93;;
11238;SDS011;5677;48.488;13.436;2023-04-06T04:46:40;2.37;;;1.97;;
11238;SDS011;5677;48.488;13.436;2023-04-06T04:49:08;2.87;;;2.20;;
11238;SDS011;5677;48.488;13.436;2023-04-06T04:51:35;4.37;;;2.13;;
11238;SDS011;5677;48.488;13.436;2023-04-06T04:54:02;2.83;;;2.03;;
11238;SDS011;5677;48.488;13.436;2023-04-06T04:56:29;3.87;;;2.13;;
11238;SDS011;5677;48.488;13.436;2023-04-06T04:58:56;2.10;;;1.90;;
11238;SDS011;5677;48.488;13.436;2023-04-06T05:01:22;2.33;;;1.97;;
11238;SDS011;5677;48.488;13.436;2023-04-06T05:03:49;4.97;;;2.57;;
11238;SDS011;5677;48.488;13.436;2023-04-06T05:06:17;4.40;;;2.23;;
11238;SDS011;5677;48.488;13.436;2023-04-06T05:08:45;2.63;;;2.10;;
11238;SDS011;5677;48.488;13.436;2023-04-06T05:11:11;2.77;;;2.23;;
11238;SDS011;5677;48.488;13.436;2023-04-06T05:13:38;3.90;;;2.20;;
11238;SDS011;5677;48.488;13.436;2023-04-06T05:16:05;2.57;;;2.13;;
11238;SDS011;5677;48.488;13.436;2023-04-06T05:18:32;2.17;;;1.97;;
11238;SDS011;5677;48.488;13.436;2023-04-06T05:20:59;4.93;;;1.73;;
11238;SDS011;5677;48.488;13.436;2023-04-06T05:23:27;3.50;;;2.03;;
11238;SDS011;5677;48.488;13.436;2023-04-06T05:25:54;2.10;;;1.90;;
11238;SDS011;5677;48.488;13.436;2023-04-06T05:28:20;2.57;;;1.90;;
11238;SDS011;5677;48.488;13.436;2023-04-06T05:30:47;2.40;;;2.00;;
11238;SDS011;5677;48.488;13.436;2023-04-06T05:33:14;2.10;;;1.90;;
11238;SDS011;5677;48.488;13.436;2023-04-06T05:35:41;2.03;;;1.83;;
11238;SDS011;5677;48.488;13.436;2023-04-06T05:38:08;2.30;;;1.77;;
11238;SDS011;5677;48.488;13.436;2023-04-06T05:40:37;2.03;;;1.83;;
11238;SDS011;5677;48.488;13.436;2023-04-06T05:43:05;2.27;;;2.03;;
11238;SDS011;5677;48.488;13.436;2023-04-06T05:45:33;3.53;;;2.43;;
11238;SDS011;5677;48.488;13.436;2023-04-06T05:48:00;2.67;;;2.20;;
11238;SDS011;5677;48.488;13.436;2023-04-06T05:50:27;3.10;;;2.00;;
11238;SDS011;5677;48.488;13.436;2023-04-06T05:52:54;3.43;;;2.10;;
11238;SDS011;5677;48.488;13.436;2023-04-06T05:55:21;2.60;;;2.40;;
11238;SDS011;5677;48.488;13.436;2023-04-06T05:57:49;2.17;;;1.93;;
11238;SDS011;5677;48.488;13.436;2023-04-06T06:00:16;3.77;;;2.20;;
11238;SDS011;5677;48.488;13.436;2023-04-06T06:02:44;2.60;;;2.07;;
11238;SDS011;5677;48.488;13.436;2023-04-06T06:05:10;2.83;;;2.20;;
11238;SDS011;5677;48.488;13.436;2023-04-06T06:07:37;2.53;;;2.10;;
11238;SDS011;5677;48.488;13.436;2023-04-06T06:10:04;2.67;;;1.93;;
11238;SDS011;5677;48.488;13.436;2023-04-06T06:12:32;2.47;;;2.10;;
11238;SDS011;5677;48.488;13.436;2023-04-06T06:15:00;2.67;;;2.30;;
11238;SDS011;5677;48.488;13.436;2023-04-06T06:17:27;2.40;;;2.20;;
11238;SDS011;5677;48.488;13.436;2023-04-06T06:19:53;6.13;;;2.47;;
11238;SDS011;5677;48.488;13.436;2023-04-06T06:22:21;2.70;;;2.37;;
11238;SDS011;5677;48.488;13.436;2023-04-06T06:24:48;3.17;;;2.07;;
11238;SDS011;5677;48.488;13.436;2023-04-06T06:27:15;3.47;;;2.33;;
11238;SDS011;5677;48.488;13.436;2023-04-06T06:29:42;2.70;;;2.20;;
11238;SDS011;5677;48.488;13.436;2023-04-06T06:32:10;8.77;;;2.60;;
11238;SDS011;5677;48.488;13.436;2023-04-06T06:34:37;6.63;;;2.60;;
11238;SDS011;5677;48.488;13.436;2023-04-06T06:37:03;10.70;;;4.10;;
11238;SDS011;5677;48.488;13.436;2023-04-06T06:39:31;7.30;;;5.77;;
11238;SDS011;5677;48.488;13.436;2023-04-06T06:41:58;14.03;;;6.40;;
11238;SDS011;5677;48.488;13.436;2023-04-06T06:44:26;8.90;;;6.10;;
11238;SDS011;5677;48.488;13.436;2023-04-06T06:46:53;11.00;;;6.10;;
11238;SDS011;5677;48.488;13.436;2023-04-06T06:49:22;9.27;;;5.40;;
11238;SDS011;5677;48.488;13.436;2023-04-06T06:51:48;9.10;;;5.27;;
11238;SDS011;5677;48.488;13.436;2023-04-06T06:54:15;5.23;;;4.47;;
11238;SDS011;5677;48.488;13.436;2023-04-06T06:56:42;8.37;;;4.73;;
11238;SDS011;5677;48.488;13.436;2023-04-06T06:59:09;7.10;;;4.60;;
11238;SDS011;5677;48.488;13.436;2023-04-06T07:01:36;9.27;;;5.30;;
11238;SDS011;5677;48.488;13.436;2023-04-06T07:04:03;7.53;;;4.90;;
11238;SDS011;5677;48.488;13.436;2023-04-06T07:06:31;7.37;;;4.70;;
11238;SDS011;5677;48.488;13.436;2023-04-06T07:08:58;7.77;;;4.57;;
11238;SDS011;5677;48.488;13.436;2023-04-06T07:11:24;4.93;;;3.97;;
11238;SDS011;5677;48.488;13.436;2023-04-06T07:13:51;6.33;;;3.90;;
11238;SDS011;5677;48.488;13.436;2023-04-06T07:16:18;8.03;;;4.27;;
11238;SDS011;5677;48.488;13.436;2023-04-06T07:18:45;6.43;;;3.67;;
11238;SDS011;5677;48.488;13.436;2023-04-06T07:21:11;10.53;;;3.93;;
11238;SDS011;5677;48.488;13.436;2023-04-06T07:23:39;6.47;;;4.10;;
11238;SDS011;5677;48.488;13.436;2023-04-06T07:26:06;8.00;;;3.70;;
11238;SDS011;5677;48.488;13.436;2023-04-06T07:28:33;7.67;;;3.43;;
11238;SDS011;5677;48.488;13.436;2023-04-06T07:31:00;6.63;;;3.30;;
11238;SDS011;5677;48.488;13.436;2023-04-06T07:33:26;8.43;;;3.50;;
11238;SDS011;5677;48.488;13.436;2023-04-06T07:35:54;4.67;;;3.10;;
11238;SDS011;5677;48.488;13.436;2023-04-06T07:38:21;5.17;;;3.57;;
11238;SDS011;5677;48.488;13.436;2023-04-06T07:40:49;7.40;;;3.63;;
11238;SDS011;5677;48.488;13.436;2023-04-06T07:43:16;5.77;;;3.60;;
11238;SDS011;5677;48.488;13.436;2023-04-06T07:45:43;4.67;;;2.90;;
11238;SDS011;5677;48.488;13.436;2023-04-06T07:48:10;5.23;;;3.20;;
11238;SDS011;5677;48.488;13.436;2023-04-06T07:50:37;3.97;;;2.90;;
11238;SDS011;5677;48.488;13.436;2023-04-06T07:53:03;5.60;;;3.00;;
11238;SDS011;5677;48.488;13.436;2023-04-06T07:55:30;3.93;;;3.10;;
11238;SDS011;5677;48.488;13.436;2023-04-06T07:57:59;5.93;;;2.87;;
11238;SDS011;5677;48.488;13.436;2023-04-06T08:00:25;4.07;;;2.97;;
11238;SDS011;5677;48.488;13.436;2023-04-06T08:02:52;4.20;;;2.73;;
11238;SDS011;5677;48.488;13.436;2023-04-06T08:05:19;5.70;;;3.17;;
11238;SDS011;5677;48.488;13.436;2023-04-06T08:07:46;5.50;;;3.33;;
11238;SDS011;5677;48.488;13.436;2023-04-06T08:10:12;4.00;;;2.73;;
11238;SDS011;5677;48.488;13.436;2023-04-06T08:12:39;4.73;;;3.17;;
11238;SDS011;5677;48.488;13.436;2023-04-06T08:15:08;3.70;;;2.77;;
11238;SDS011;5677;48.488;13.436;2023-04-06T08:17:35;3.57;;;2.77;;
11238;SDS011;5677;48.488;13.436;2023-04-06T08:20:02;5.27;;;3.13;;
11238;SDS011;5677;48.488;13.436;2023-04-06T08:22:29;4.73;;;3.60;;
11238;SDS011;5677;48.488;13.436;2023-04-06T08:24:56;4.77;;;4.03;;
11238;SDS011;5677;48.488;13.436;2023-04-06T08:27:22;5.87;;;4.00;;
11238;SDS011;5677;48.488;13.436;2023-04-06T08:29:49;5.03;;;3.60;;
11238;SDS011;5677;48.488;13.436;2023-04-06T08:32:18;5.17;;;3.33;;
11238;SDS011;5677;48.488;13.436;2023-04-06T08:34:44;4.50;;;3.37;;
11238;SDS011;5677;48.488;13.436;2023-04-06T08:37:11;5.93;;;3.40;;
11238;SDS011;5677;48.488;13.436;2023-04-06T08:39:38;4.87;;;3.87;;
11238;SDS011;5677;48.488;13.436;2023-04-06T08:42:09;4.80;;;3.77;;
11238;SDS011;5677;48.488;13.436;2023-04-06T08:44:39;6.07;;;3.30;;
11238;SDS011;5677;48.488;13.436;2023-04-06T08:47:07;4.73;;;3.70;;
11238;SDS011;5677;48.488;13.436;2023-04-06T08:49:35;6.97;;;3.50;;
11238;SDS011;5677;48.488;13.436;2023-04-06T08:52:05;3.40;;;2.83;;
11238;SDS011;5677;48.488;13.436;2023-04-06T08:54:32;4.40;;;2.83;;
11238;SDS011;5677;48.488;13.436;2023-04-06T08:56:59;4.47;;;2.70;;
11238;SDS011;5677;48.488;13.436;2023-04-06T08:59:27;3.17;;;2.60;;
11238;SDS011;5677;48.488;13.436;2023-04-06T09:01:54;4.43;;;2.90;;
11238;SDS011;5677;48.488;13.436;2023-04-06T09:04:21;5.13;;;2.80;;
11238;SDS011;5677;48.488;13.436;2023-04-06T09:06:49;4.07;;;2.67;;
11238;SDS011;5677;48.488;13.436;2023-04-06T09:09:17;2.50;;;2.30;;
11238;SDS011;5677;48.488;13.436;2023-04-06T09:11:44;4.33;;;2.43;;
11238;SDS011;5677;48.488;13.436;2023-04-06T09:14:12;5.23;;;2.50;;
11238;SDS011;5677;48.488;13.436;2023-04-06T09:16:40;4.63;;;3.07;;
11238;SDS011;5677;48.488;13.436;2023-04-06T09:19:08;4.70;;;2.63;;
11238;SDS011;5677;48.488;13.436;2023-04-06T09:21:35;4.50;;;2.30;;
11238;SDS011;5677;48.488;13.436;2023-04-06T09:24:04;3.70;;;2.53;;
11238;SDS011;5677;48.488;13.436;2023-04-06T09:26:32;7.40;;;2.73;;
11238;SDS011;5677;48.488;13.436;2023-04-06T09:29:00;4.00;;;2.40;;
11238;SDS011;5677;48.488;13.436;2023-04-06T09:31:29;4.90;;;2.20;;
11238;SDS011;5677;48.488;13.436;2023-04-06T09:33:57;2.20;;;2.00;;
11238;SDS011;5677;48.488;13.436;2023-04-06T09:36:31;3.83;;;2.33;;
11238;SDS011;5677;48.488;13.436;2023-04-06T09:38:59;3.73;;;2.57;;
11238;SDS011;5677;48.488;13.436;2023-04-06T09:41:28;2.97;;;2.10;;
11238;SDS011;5677;48.488;13.436;2023-04-06T09:44:06;4.57;;;2.20;;
11238;SDS011;5677;48.488;13.436;2023-04-06T09:46:34;3.10;;;2.20;;
11238;SDS011;5677;48.488;13.436;2023-04-06T09:49:03;3.17;;;2.20;;
11238;SDS011;5677;48.488;13.436;2023-04-06T09:51:31;3.60;;;2.00;;
11238;SDS011;5677;48.488;13.436;2023-04-06T09:54:03;2.53;;;2.20;;
11238;SDS011;5677;48.488;13.436;2023-04-06T09:56:33;2.10;;;1.90;;
11238;SDS011;5677;48.488;13.436;2023-04-06T09:59:05;2.83;;;2.37;;
11238;SDS011;5677;48.488;13.436;2023-04-06T10:01:35;3.07;;;1.80;;
11238;SDS011;5677;48.488;13.436;2023-04-06T10:04:06;3.50;;;2.40;;
11238;SDS011;5677;48.488;13.436;2023-04-06T10:06:44;3.30;;;2.00;;
11238;SDS011;5677;48.488;13.436;2023-04-06T10:09:16;2.00;;;1.80;;
11238;SDS011;5677;48.488;13.436;2023-04-06T10:11:45;2.73;;;2.30;;
11238;SDS011;5677;48.488;13.436;2023-04-06T10:14:13;4.73;;;2.60;;
11238;SDS011;5677;48.488;13.436;2023-04-06T10:16:40;3.60;;;2.20;;
11238;SDS011;5677;48.488;13.436;2023-04-06T10:19:10;2.50;;;2.20;;
11238;SDS011;5677;48.488;13.436;2023-04-06T10:21:41;3.70;;;2.07;;
11238;SDS011;5677;48.488;13.436;2023-04-06T10:24:12;2.83;;;1.73;;
11238;SDS011;5677;48.488;13.436;2023-04-06T10:26:39;2.43;;;2.03;;
11238;SDS011;5677;48.488;13.436;2023-04-06T10:29:07;2.00;;;1.80;;
11238;SDS011;5677;48.488;13.436;2023-04-06T10:31:39;2.37;;;1.93;;
11238;SDS011;5677;48.488;13.436;2023-04-06T10:34:09;3.70;;;2.03;;
11238;SDS011;5677;48.488;13.436;2023-04-06T10:36:35;3.37;;;1.90;;
11238;SDS011;5677;48.488;13.436;2023-04-06T10:39:03;2.00;;;1.80;;
11238;SDS011;5677;48.488;13.436;2023-04-06T10:41:34;4.00;;;2.10;;
11238;SDS011;5677;48.488;13.436;2023-04-06T10:44:01;2.20;;;1.97;;
11238;SDS011;5677;48.488;13.436;2023-04-06T10:46:30;1.93;;;1.60;;
11238;SDS011;5677;48.488;13.436;2023-04-06T10:49:09;2.90;;;2.20;;
11238;SDS011;5677;48.488;13.436;2023-04-06T10:51:38;3.60;;;1.87;;
11238;SDS011;5677;48.488;13.436;2023-04-06T10:54:05;2.23;;;1.90;;
11238;SDS011;5677;48.488;13.436;2023-04-06T10:56:32;2.70;;;2.00;;
11238;SDS011;5677;48.488;13.436;2023-04-06T10:59:03;2.33;;;2.07;;
11238;SDS011;5677;48.488;13.436;2023-04-06T11:01:33;3.97;;;1.80;;
11238;SDS011;5677;48.488;13.436;2023-04-06T11:04:00;2.00;;;1.67;;
11238;SDS011;5677;48.488;13.436;2023-04-06T11:06:28;2.50;;;1.60;;
11238;SDS011;5677;48.488;13.436;2023-04-06T11:08:57;1.90;;;1.50;;
11238;SDS011;5677;48.488;13.436;2023-04-06T11:11:24;2.53;;;1.90;;
11238;SDS011;5677;48.488;13.436;2023-04-06T11:13:52;2.20;;;1.67;;
11238;SDS011;5677;48.488;13.436;2023-04-06T11:16:21;1.70;;;1.60;;
11238;SDS011;5677;48.488;13.436;2023-04-06T11:18:51;2.87;;;1.83;;
11238;SDS011;5677;48.488;13.436;2023-04-06T11:21:20;4.77;;;1.90;;
11238;SDS011;5677;48.488;13.436;2023-04-06T11:24:08;1.50;;;1.40;;
11238;SDS011;5677;48.488;13.436;2023-04-06T11:26:39;3.77;;;1.80;;
11238;SDS011;5677;48.488;13.436;2023-04-06T11:29:08;1.70;;;1.60;;
11238;SDS011;5677;48.488;13.436;2023-04-06T11:31:39;1.70;;;1.60;;
11238;SDS011;5677;48.488;13.436;2023-04-06T11:34:12;3.20;;;2.50;;
11238;SDS011;5677;48.488;13.436;2023-04-06T11:36:39;3.47;;;2.80;;
11238;SDS011;5677;48.488;13.436;2023-04-06T11:39:07;2.70;;;2.50;;
11238;SDS011;5677;48.488;13.436;2023-04-06T11:41:35;2.87;;;1.90;;
11238;SDS011;5677;48.488;13.436;2023-04-06T11:44:02;2.20;;;1.80;;
11238;SDS011;5677;48.488;13.436;2023-04-06T11:46:29;2.20;;;1.80;;
11238;SDS011;5677;48.488;13.436;2023-04-06T11:48:57;4.27;;;1.90;;
11238;SDS011;5677;48.488;13.436;2023-04-06T11:51:27;3.80;;;2.70;;
11238;SDS011;5677;48.488;13.436;2023-04-06T11:53:54;4.43;;;2.37;;
11238;SDS011;5677;48.488;13.436;2023-04-06T11:56:25;3.50;;;1.80;;
11238;SDS011;5677;48.488;13.436;2023-04-06T11:58:54;2.20;;;1.70;;
11238;SDS011;5677;48.488;13.436;2023-04-06T12:01:21;2.50;;;1.63;;
11238;SDS011;5677;48.488;13.436;2023-04-06T12:03:48;3.13;;;1.60;;
11238;SDS011;5677;48.488;13.436;2023-04-06T12:06:15;2.87;;;2.30;;
11238;SDS011;5677;48.488;13.436;2023-04-06T12:08:43;44.67;;;6.37;;
11238;SDS011;5677;48.488;13.436;2023-04-06T12:11:10;4.30;;;2.37;;
11238;SDS011;5677;48.488;13.436;2023-04-06T12:13:37;4.83;;;3.57;;
11238;SDS011;5677;48.488;13.436;2023-04-06T12:16:04;6.10;;;3.50;;
11238;SDS011;5677;48.488;13.436;2023-04-06T12:18:31;4.27;;;2.97;;
11238;SDS011;5677;48.488;13.436;2023-04-06T12:20:58;3.77;;;2.50;;
11238;SDS011;5677;48.488;13.436;2023-04-06T12:23:25;6.13;;;2.63;;
11238;SDS011;5677;48.488;13.436;2023-04-06T12:25:53;3.00;;;2.07;;
11238;SDS011;5677;48.488;13.436;2023-04-06T12:28:20;4.00;;;2.37;;
11238;SDS011;5677;48.488;13.436;2023-04-06T12:30:48;3.73;;;2.37;;
11238;SDS011;5677;48.488;13.436;2023-04-06T12:33:15;2.03;;;1.70;;
11238;SDS011;5677;48.488;13.436;2023-04-06T12:35:41;1.90;;;1.80;;
11238;SDS011;5677;48.488;13.436;2023-04-06T12:38:08;2.47;;;1.83;;
11238;SDS011;5677;48.488;13.436;2023-04-06T12:40:36;4.03;;;1.90;;
11238;SDS011;5677;48.488;13.436;2023-04-06T12:43:05;2.37;;;1.73;;
11238;SDS011;5677;48.488;13.436;2023-04-06T12:45:32;2.90;;;1.47;;
11238;SDS011;5677;48.488;13.436;2023-04-06T12:47:59;2.30;;;1.60;;
11238;SDS011;5677;48.488;13.436;2023-04-06T12:50:26;1.40;;;1.30;;
11238;SDS011;5677;48.488;13.436;2023-04-06T12:52:52;2.43;;;1.70;;
11238;SDS011;5677;48.488;13.436;2023-04-06T12:55:19;3.03;;;1.63;;
11238;SDS011;5677;48.488;13.436;2023-04-06T12:57:46;2.43;;;1.60;;
11238;SDS011;5677;48.488;13.436;2023-04-06T13:00:15;1.50;;;1.40;;
11238;SDS011;5677;48.488;13.436;2023-04-06T13:02:42;2.47;;;1.50;;
11238;SDS011;5677;48.488;13.436;2023-04-06T13:05:12;1.80;;;1.70;;
11238;SDS011;5677;48.488;13.436;2023-04-06T13:07:39;2.23;;;1.60;;
11238;SDS011;5677;48.488;13.436;2023-04-06T13:10:06;2.10;;;1.47;;
11238;SDS011;5677;48.488;13.436;2023-04-06T13:12:34;3.57;;;1.67;;
11238;SDS011;5677;48.488;13.436;2023-04-06T13:15:01;2.47;;;1.63;;
11238;SDS011;5677;48.488;13.436;2023-04-06T13:17:29;1.90;;;1.40;;
11238;SDS011;5677;48.488;13.436;2023-04-06T13:19:56;2.37;;;1.57;;
11238;SDS011;5677;48.488;13.436;2023-04-06T13:22:23;1.63;;;1.50;;
11238;SDS011;5677;48.488;13.436;2023-04-06T13:24:49;2.13;;;1.47;;
11238;SDS011;5677;48.488;13.436;2023-04-06T13:27:16;3.03;;;1.67;;
11238;SDS011;5677;48.488;13.436;2023-04-06T13:29:43;1.50;;;1.30;;
11238;SDS011;5677;48.488;13.436;2023-04-06T13:32:09;3.70;;;1.60;;
11238;SDS011;5677;48.488;13.436;2023-04-06T13:34:39;3.03;;;1.27;;
11238;SDS011;5677;48.488;13.436;2023-04-06T13:37:09;4.07;;;1.50;;
11238;SDS011;5677;48.488;13.436;2023-04-06T13:39:37;1.73;;;1.20;;
11238;SDS011;5677;48.488;13.436;2023-04-06T13:42:03;1.43;;;1.33;;
11238;SDS011;5677;48.488;13.436;2023-04-06T13:44:31;1.27;;;1.17;;
11238;SDS011;5677;48.488;13.436;2023-04-06T13:46:58;2.40;;;1.30;;
11238;SDS011;5677;48.488;13.436;2023-04-06T13:49:25;3.23;;;1.43;;
11238;SDS011;5677;48.488;13.436;2023-04-06T13:51:54;2.37;;;1.57;;
11238;SDS011;5677;48.488;13.436;2023-04-06T13:54:20;1.43;;;1.07;;
11238;SDS011;5677;48.488;13.436;2023-04-06T13:56:47;5.10;;;1.33;;
11238;SDS011;5677;48.488;13.436;2023-04-06T13:59:14;2.10;;;1.40;;
11238;SDS011;5677;48.488;13.436;2023-04-06T14:01:41;2.53;;;1.43;;
11238;SDS011;5677;48.488;13.436;2023-04-06T14:04:08;2.70;;;1.20;;
11238;SDS011;5677;48.488;13.436;2023-04-06T14:06:34;1.97;;;1.37;;
11238;SDS011;5677;48.488;13.436;2023-04-06T14:09:04;2.07;;;1.37;;
11238;SDS011;5677;48.488;13.436;2023-04-06T14:11:31;1.10;;;1.10;;
11238;SDS011;5677;48.488;13.436;2023-04-06T14:13:58;2.80;;;1.30;;
11238;SDS011;5677;48.488;13.436;2023-04-06T14:16:25;1.63;;;1.30;;
11238;SDS011;5677;48.488;13.436;2023-04-06T14:18:52;2.27;;;1.30;;
11238;SDS011;5677;48.488;13.436;2023-04-06T14:21:19;1.80;;;1.17;;
11238;SDS011;5677;48.488;13.436;2023-04-06T14:23:46;1.33;;;1.20;;
11238;SDS011;5677;48.488;13.436;2023-04-06T14:26:14;2.47;;;1.43;;
11238;SDS011;5677;48.488;13.436;2023-04-06T14:28:41;1.47;;;1.20;;
11238;SDS011;5677;48.488;13.436;2023-04-06T14:31:12;1.17;;;1.10;;
11238;SDS011;5677;48.488;13.436;2023-04-06T14:33:41;1.73;;;1.33;;
11238;SDS011;5677;48.488;13.436;2023-04-06T14:36:08;1.83;;;1.40;;
11238;SDS011;5677;48.488;13.436;2023-04-06T14:38:35;2.63;;;1.40;;
11238;SDS011;5677;48.488;13.436;2023-04-06T14:41:03;1.23;;;1.10;;
11238;SDS011;5677;48.488;13.436;2023-04-06T14:43:31;2.20;;;1.20;;
11238;SDS011;5677;48.488;13.436;2023-04-06T14:46:01;2.93;;;1.10;;
11238;SDS011;5677;48.488;13.436;2023-04-06T14:48:30;2.50;;;1.10;;
11238;SDS011;5677;48.488;13.436;2023-04-06T14:50:57;1.90;;;1.07;;